KLAN/LAN METAR and TAF weather

Enter ICAO airport designator
Station Type Date Time Source
KLAN METAR 2021/01/27 12:53 UTC NOAA

KLAN 271253Z 00000KT 10SM CLR M16/M17 A3028 RMK AO2 SLP270 I1000 T11561167


Station Type Date Time Source
KLAN Decoded METAR 2021/01/27 12:53 UTC NOAA

CAPITAL CITY AIRPORT, MI, United States (KLAN) 42-47N 084-35W 264M
Jan 27, 2021 - 07:53 AM EST / 2021.01.27 1253 UTC
Wind: Calm:0
Visibility: 10 mile(s):0
Sky conditions: clear
Temperature: 3.9 F (-15.6 C)
Dew Point: 1.9 F (-16.7 C)
Relative Humidity: 91%
Pressure (altimeter): 30.28 in. Hg (1025 hPa)
ob: KLAN 271253Z 00000KT 10SM CLR M16/M17 A3028 RMK AO2 SLP270 I1000 T11561167
cycle: 13

Station Type Date Time Source
KLAN TAF 2021/01/27 12:48 UTC NOAA

TAF KLAN 271146Z 2712/2812 00000KT P6SM FEW020
FM271800 34008KT P6SM BKN030
FM272100 35007KT P6SM OVC025
FM280300 35005KT P6SM BKN250

Example: see airport list